Station: Merriwa  

  Atmospheric Gas Attenuation - ITU Rec 676-11   ----------------- dB/100km -----------------
Date Time Temp RH % AH g/m3 Dew Point Wind Direction Speed kph Gust kph Barometer mB Rainfall Since 9am 24GHz 47GHz 76GHz 122GHz 134GHz 241GHz
08/05 12:30 16 45 6.13 4.1 28 39 1020.6 0 14.3 21.8 29.8 77.7 65.9 224.6
08/05 12:20 16.2 45 6.21 4.3 24 32 1020.7 0 14.4 21.9 30.0 78.3 66.6 227.3
08/05 12:10 16.1 45 6.17 4.2 24 35 1021 0 14.3 21.9 29.9 78.0 66.3 226.0
08/05 12:00 15.6 46 6.12 4 28 48 1021 0 14.2 21.9 29.9 78.0 66.1 225.4
08/05 11:50 15.9 46 6.23 4.3 24 30 1021.2 0 14.5 22.0 30.2 78.8 67.2 229.1
08/05 11:40 15.2 46 5.97 3.7 28 33 1021.4 0 13.9 21.8 29.6 77.0 64.7 220.3
08/05 11:30 15.3 46 6.01 3.8 24 37 1021.6 0 14.0 21.8 29.7 77.3 65.1 221.7
08/05 11:20 14.7 47 5.92 3.5 22 33 1021.9 0 13.9 21.9 29.6 77.0 64.5 219.7
08/05 11:10 14.9 46 5.86 3.4 20 24 1022 0 13.7 21.7 29.3 76.3 63.7 216.7
08/05 11:00 14.7 46 5.79 3.2 24 35 1022.2 0 13.6 21.7 29.1 75.8 63.0 214.4
08/05 10:50 14.4 48 5.93 3.5 24 30 1022.4 0 13.9 22.0 29.7 77.5 64.9 221.0
08/05 10:40 13.6 49 5.77 3.1 22 26 1022.5 0 13.6 21.9 29.5 76.7 63.6 216.5
08/05 10:30 13.4 50 5.81 3.2 26 37 1022.3 0 13.7 22.0 29.7 77.3 64.3 218.7
08/05 10:20 12.7 50 5.57 2.6 28 35 1022.4 0 13.2 21.8 29.1 75.6 62.0 210.4
08/05 10:10 13.1 51 5.82 3.2 24 33 1022.5 0 13.7 22.1 29.8 77.7 64.6 220.0
08/05 10:00 12.7 52 5.79 3.1 28 39 1022.4 0 13.7 22.2 29.9 77.7 64.6 219.8
08/05 09:50 12 53 5.65 2.7 24 30 1022.6 0 13.4 22.1 29.6 77.1 63.5 215.7
08/05 09:40 11.3 55 5.61 2.6 30 35 1022.7 0 13.3 22.2 29.7 77.4 63.6 215.9
08/05 09:30 10.7 56 5.5 2.3 26 37 1022.4 0 13.1 22.2 29.5 76.8 62.7 212.7
08/05 09:20 10.6 56 5.47 2.2 26 37 1022.7 0 13.0 22.2 29.5 76.6 62.4 211.7
08/05 09:10 10.3 58 5.56 2.4 24 28 1022.7 0 13.2 22.4 29.9 77.8 63.7 216.4
08/05 09:00 9.9 60 5.6 2.5 28 37 1022.7 0 13.3 22.6 30.2 78.6 64.6 219.3
08/05 08:50 9.7 61 5.63 2.6 24 30 1022.9 0 13.4 22.7 30.4 79.1 65.1 221.2
08/05 08:40 9.2 62 5.54 2.3 26 35 1022.9 0 13.2 22.7 30.2 78.7 64.4 218.6
08/05 08:30 8.5 63 5.38 1.9 28 37 1022.6 0 12.9 22.6 29.9 77.7 62.9 213.3
08/05 08:20 8 65 5.38 1.8 26 35 1022.7 0 12.9 22.7 30.1 78.2 63.3 214.7
08/05 08:10 7.5 66 5.29 1.6 32 37 1022.8 0 12.8 22.7 29.9 77.8 62.6 212.0
08/05 08:00 7.3 67 5.3 1.6 26 33 1022.7 0 12.8 22.8 30.0 78.1 62.9 213.0
08/05 07:50 7 68 5.27 1.5 26 30 1022.9 0 12.7 22.8 30.0 78.1 62.8 212.5
08/05 07:40 6.7 70 5.32 1.6 24 28 1022.8 0 12.9 22.9 30.3 78.9 63.6 215.5
08/05 07:30 6.3 71 5.26 1.4 26 32 1022.7 0 12.7 22.9 30.2 78.7 63.2 213.9
08/05 07:20 5.9 71 5.12 1.1 26 30 1022.7 0 12.5 22.8 29.8 77.6 61.7 208.6
08/05 07:10 5.7 72 5.13 1.1 30 35 1022.7 0 12.5 22.9 30.0 77.9 62.0 209.6
08/05 07:00 5.4 73 5.1 1 26 35 1022.7 0 12.4 22.9 30.0 77.9 61.8 209.0
08/05 06:50 5.2 74 5.1 1 28 32 1022.9 0 12.4 23.0 30.0 78.1 62.0 209.6
08/05 06:40 5.4 72 5.03 0.8 22 26 1022.8 0 12.3 22.8 29.7 77.2 60.9 205.8
08/05 06:30 5.5 72 5.06 0.9 22 32 1022.8 0 12.3 22.8 29.8 77.4 61.2 207.0
08/05 06:20 5.5 72 5.06 0.9 24 28 1022.8 0 12.3 22.8 29.8 77.4 61.2 207.0
08/05 06:10 5.4 72 5.03 0.8 22 26 1022.8 0 12.3 22.8 29.7 77.2 60.9 205.8
08/05 06:00 5.3 73 5.06 0.9 20 26 1022.6 0 12.4 22.9 29.8 77.6 61.4 207.4
08/05 05:50 4.9 73 4.93 0.5 19 20 1022.7 0 12.1 22.8 29.5 76.6 60.0 202.6
08/05 05:40 5.1 73 5 0.7 19 22 1022.7 0 12.2 22.8 29.7 77.1 60.8 205.2
08/05 05:30 4.6 74 4.9 0.4 17 26 1022.4 0 12.0 22.8 29.4 76.6 59.8 201.9
08/05 05:20 4.7 73 4.87 0.3 17 22 1022.4 0 12.0 22.7 29.3 76.1 59.4 200.3
08/05 05:10 4.7 73 4.87 0.3 20 22 1022.3 0 12.0 22.7 29.3 76.1 59.4 200.3
08/05 05:00 4.6 74 4.9 0.4 19 30 1022.1 0 12.0 22.8 29.4 76.5 59.8 201.9
08/05 04:50 4.5 73 4.8 0.1 17 20 1022.3 0 11.8 22.7 29.1 75.6 58.6 197.6
08/05 04:40 4.6 73 4.83 0.2 17 19 1022.3 0 11.9 22.7 29.2 75.8 58.9 198.7
08/05 04:30 4.6 73 4.83 0.2 20 26 1022 0 11.9 22.7 29.2 75.8 58.9 198.7
08/05 04:20 4.5 73 4.8 0.1 19 22 1021.9 0 11.8 22.6 29.1 75.6 58.6 197.5
08/05 04:10 4.4 73 4.77 0 15 19 1022.1 0 11.8 22.6 29.0 75.4 58.3 196.4
08/05 04:00 4.6 72 4.77 0 19 26 1022 0 11.8 22.6 28.9 75.2 58.1 195.9
08/05 03:50 4.6 72 4.77 0 19 24 1022.1 0 11.8 22.6 28.9 75.2 58.1 196.0
08/05 03:40 4.4 73 4.77 0 20 26 1022 0 11.8 22.6 29.0 75.4 58.3 196.4
08/05 03:30 4.3 73 4.74 -0.1 19 26 1022 0 11.7 22.6 28.9 75.1 58.0 195.3
08/05 03:20 4.4 74 4.84 0.2 19 22 1022.2 0 11.9 22.7 29.3 76.1 59.2 199.7
08/05 03:10 4.2 74 4.77 0 17 22 1022.3 0 11.8 22.7 29.1 75.6 58.5 197.0
08/05 03:00 4.4 72 4.71 -0.2 17 20 1022.3 0 11.6 22.5 28.8 74.8 57.5 193.8
08/05 02:50 4.9 71 4.8 0.1 19 22 1022.4 0 11.8 22.6 29.0 75.2 58.3 196.6
08/05 02:40 4.5 74 4.87 0.3 19 20 1022.3 0 12.0 22.8 29.4 76.3 59.5 200.8
08/05 02:30 4 75 4.77 0 13 17 1022.2 0 11.8 22.7 29.1 75.8 58.6 197.5
08/05 02:20 3.7 76 4.74 -0.1 13 13 1022.4 0 11.7 22.8 29.1 75.7 58.4 196.9
08/05 02:10 3.5 75 4.62 -0.5 11 11 1022.5 0 11.5 22.6 28.8 74.7 57.0 191.9
08/05 02:00 3.7 75 4.68 -0.3 13 15 1022.5 0 11.6 22.7 28.9 75.1 57.7 194.1
08/05 01:50 3.8 73 4.58 -0.6 11 13 1022.6 0 11.4 22.5 28.5 74.0 56.3 189.4
08/05 01:40 4.4 71 4.64 -0.4 15 15 1022.7 0 11.5 22.4 28.5 74.1 56.6 190.7
08/05 01:30 4.5 71 4.67 -0.3 11 17 1022.6 0 11.5 22.5 28.6 74.3 57.0 191.8
08/05 01:20 4.2 72 4.64 -0.4 11 11 1022.7 0 11.5 22.5 28.6 74.2 56.8 191.1
08/05 01:10 4.1 73 4.68 -0.3 13 17 1022.7 0 11.6 22.6 28.8 74.8 57.4 193.2
08/05 01:00 3.4 76 4.65 -0.4 9 13 1022.6 0 11.5 22.7 28.9 75.1 57.5 193.5
08/05 00:50 3.4 74 4.52 -0.8 11 11 1022.6 0 11.3 22.5 28.4 73.7 55.8 187.6
08/05 00:40 3.6 73 4.52 -0.8 13 15 1022.7 0 11.3 22.5 28.3 73.6 55.7 187.1
08/05 00:20 3.8 69 4.33 -1.4 9 9 1022.8 0 10.8 22.1 27.5 71.4 53.1 178.1
08/05 00:10 3.7 68 4.24 -1.6 9 13 1022.8 0 10.7 22.0 27.2 70.6 52.0 174.3
08/05 00:00 4 68 4.33 -1.4 9 11 1022.7 0 10.8 22.1 27.5 71.2 53.0 177.6
07/05 23:50 4.2 67 4.32 -1.4 9 11 1022.9 0 10.8 22.0 27.4 70.9 52.7 176.8
07/05 23:40 4.1 67 4.29 -1.5 9 11 1022.9 0 10.7 22.0 27.3 70.7 52.4 175.6
07/05 23:30 4.5 65 4.28 -1.5 9 9 1022.8 0 10.7 21.9 27.1 70.3 52.0 174.3
07/05 23:20 5.6 61 4.32 -1.3 7 9 1022.8 0 10.8 21.7 26.9 69.7 51.8 173.7
07/05 23:10 6 60 4.36 -1.2 7 11 1022.7 0 10.8 21.6 26.9 69.7 52.0 174.6
07/05 23:00 6.3 59 4.37 -1.1 19 28 1022.4 0 10.8 21.6 26.8 69.6 51.9 174.3
07/05 22:50 6.4 58 4.32 -1.2 13 17 1022.7 0 10.7 21.5 26.6 69.0 51.2 171.9
07/05 22:40 6.5 58 4.35 -1.2 19 20 1022.7 0 10.8 21.5 26.7 69.2 51.5 173.0
07/05 22:30 6.7 57 4.33 -1.2 17 24 1022.7 0 10.7 21.4 26.6 68.8 51.2 171.7
07/05 22:20 6.6 57 4.31 -1.3 17 20 1022.6 0 10.7 21.4 26.5 68.7 51.0 171.1
07/05 22:10 6.3 58 4.3 -1.3 20 24 1022.7 0 10.7 21.5 26.6 68.9 51.1 171.3
07/05 22:00 5.8 60 4.3 -1.3 19 22 1022.8 0 10.7 21.6 26.7 69.3 51.4 172.4
07/05 21:50 5.4 60 4.19 -1.7 19 20 1023 0 10.5 21.5 26.5 68.6 50.3 168.4
07/05 21:40 6.3 56 4.15 -1.8 15 19 1023.1 0 10.4 21.3 26.0 67.4 49.2 164.9
07/05 21:30 6.7 54 4.11 -1.9 13 20 1023 0 10.3 21.1 25.8 66.7 48.5 162.3
07/05 21:20 7 54 4.19 -1.7 17 20 1023.1 0 10.4 21.2 26.0 67.2 49.3 165.1
07/05 21:10 6.7 53 4.03 -2.2 17 22 1023 0 10.1 21.0 25.5 65.9 47.5 158.9
07/05 21:00 6.5 54 4.05 -2.1 17 24 1022.7 0 10.2 21.0 25.6 66.2 47.9 160.1
07/05 20:50 5.2 59 4.07 -2.1 15 17 1023 0 10.2 21.4 26.1 67.5 48.9 163.6
07/05 20:40 4.8 60 4.03 -2.3 13 15 1022.9 0 10.2 21.4 26.1 67.5 48.7 162.7
07/05 20:30 4.6 60 3.97 -2.5 13 15 1022.7 0 10.0 21.4 25.9 67.0 48.0 160.4
07/05 20:20 4.4 60 3.92 -2.7 11 13 1022.7 0 9.9 21.3 25.8 66.7 47.5 158.6
07/05 20:10 4.9 57 3.85 -2.9 11 11 1022.8 0 9.8 21.1 25.3 65.6 46.4 154.6
07/05 20:00 5.8 52 3.73 -3.3 11 13 1022.7 0 9.5 20.7 24.6 63.7 44.4 147.7
07/05 19:50 5.8 51 3.66 -3.5 11 13 1022.7 0 9.3 20.6 24.4 63.0 43.5 144.8

Last Refresh: 08-May-2026 12:08:01

Bureau of Meteorology